createdAt,value
2018-06-15T00:04:13.058Z,17.10
2018-06-15T00:07:46.267Z,17.00
2018-06-15T00:11:19.490Z,16.90
2018-06-15T00:14:52.693Z,16.80
2018-06-15T00:25:31.846Z,16.70
2018-06-15T00:29:05.066Z,16.70
2018-06-15T00:32:38.300Z,16.60
2018-06-15T00:36:11.506Z,16.60
2018-06-15T00:39:44.703Z,16.50
2018-06-15T00:43:17.930Z,16.40
2018-06-15T00:46:51.147Z,16.40
2018-06-15T00:50:24.365Z,16.30
2018-06-15T00:53:57.688Z,16.20
2018-06-15T00:57:42.326Z,16.20
2018-06-15T01:01:15.532Z,16.10
2018-06-15T01:04:48.756Z,16.10
2018-06-15T01:08:21.967Z,16.00
2018-06-15T01:11:55.188Z,16.00
2018-06-15T01:15:28.440Z,15.90
2018-06-15T01:19:01.821Z,15.90
2018-06-15T01:22:35.038Z,15.90
2018-06-15T01:26:08.246Z,15.90
2018-06-15T01:29:41.459Z,15.90
2018-06-15T01:33:14.693Z,15.90
2018-06-15T01:36:47.955Z,15.90
2018-06-15T01:40:21.178Z,15.90
2018-06-15T01:43:54.386Z,15.80
2018-06-15T01:47:27.606Z,15.80
2018-06-15T01:51:00.804Z,15.70
2018-06-15T01:54:34.008Z,15.70
2018-06-15T01:58:07.254Z,15.60
2018-06-15T02:01:40.472Z,15.60
2018-06-15T02:05:13.687Z,15.50
2018-06-15T02:08:46.883Z,15.40
2018-06-15T02:12:20.091Z,15.40
2018-06-15T02:15:53.323Z,15.30
2018-06-15T02:19:26.534Z,15.30
2018-06-15T02:22:59.999Z,15.20
2018-06-15T02:26:33.207Z,15.20
2018-06-15T02:30:06.447Z,15.10
2018-06-15T02:33:39.639Z,15.10
2018-06-15T02:37:12.851Z,15.10
2018-06-15T02:40:46.074Z,15.10
2018-06-15T02:44:19.285Z,15.10
2018-06-15T02:47:52.507Z,15.10
2018-06-15T02:51:25.720Z,15.10
2018-06-15T02:54:58.967Z,15.10
2018-06-15T02:58:32.490Z,15.10
2018-06-15T03:02:05.976Z,15.10
2018-06-15T03:05:39.610Z,15.10
2018-06-15T03:09:12.819Z,15.10
2018-06-15T03:12:46.055Z,15.10
2018-06-15T03:16:19.291Z,15.10
2018-06-15T03:19:52.562Z,15.00
2018-06-15T03:23:25.773Z,15.00
2018-06-15T03:26:59.043Z,15.00
2018-06-15T03:30:32.251Z,15.00
2018-06-15T03:34:05.459Z,15.00
2018-06-15T03:37:38.685Z,15.00
2018-06-15T03:41:11.874Z,15.00
2018-06-15T03:44:45.101Z,15.10
2018-06-15T03:48:18.319Z,15.10
2018-06-15T03:51:51.526Z,15.10
2018-06-15T03:58:57.722Z,15.10
2018-06-15T04:02:30.924Z,15.20
2018-06-15T04:06:04.131Z,15.30
2018-06-15T04:09:37.523Z,15.40
2018-06-15T04:13:10.790Z,15.40
2018-06-15T04:16:43.969Z,15.50
2018-06-15T04:20:17.207Z,15.50
2018-06-15T04:23:50.462Z,15.60
2018-06-15T04:27:23.672Z,15.60
2018-06-15T04:30:56.950Z,15.60
2018-06-15T04:34:30.291Z,15.70
2018-06-15T04:38:03.560Z,15.70
2018-06-15T04:41:36.870Z,15.70
2018-06-15T04:45:10.114Z,15.70
2018-06-15T04:48:43.398Z,15.70
2018-06-15T04:52:16.619Z,15.70
2018-06-15T04:59:22.808Z,15.70
2018-06-15T05:02:56.024Z,15.80
2018-06-15T05:06:29.338Z,15.90
2018-06-15T05:10:02.566Z,16.00
2018-06-15T05:13:35.784Z,16.10
2018-06-15T05:17:09.050Z,16.20
2018-06-15T05:20:42.256Z,16.30
2018-06-15T05:24:15.485Z,16.30
2018-06-15T05:27:48.705Z,16.50
2018-06-15T05:38:28.182Z,16.90
2018-06-15T05:42:01.421Z,17.10
2018-06-15T05:45:34.646Z,17.20
2018-06-15T05:49:07.938Z,17.40
2018-06-15T05:52:41.180Z,17.50
2018-06-15T05:56:14.399Z,17.70
2018-06-15T05:59:47.629Z,18.00
2018-06-15T06:03:20.999Z,18.20
2018-06-15T06:10:27.262Z,18.40
2018-06-15T06:14:00.479Z,18.50
2018-06-15T06:17:33.711Z,18.70
2018-06-15T06:21:06.943Z,18.80
2018-06-15T06:24:40.175Z,18.90
2018-06-15T06:28:13.447Z,19.00
2018-06-15T06:31:46.666Z,18.90
2018-06-15T06:35:20.083Z,18.90
2018-06-15T06:38:53.375Z,18.90
2018-06-15T06:42:26.596Z,19.00
2018-06-15T06:45:59.851Z,19.10
2018-06-15T06:49:33.063Z,19.30
2018-06-15T06:53:06.264Z,19.50
2018-06-15T06:56:39.475Z,19.70
2018-06-15T07:00:12.992Z,19.80
2018-06-15T07:03:46.260Z,19.90
2018-06-15T07:07:19.481Z,20.10
2018-06-15T07:10:52.701Z,20.20
2018-06-15T07:14:25.922Z,20.40
2018-06-15T07:17:59.139Z,20.50
2018-06-15T07:21:32.366Z,20.60
2018-06-15T07:25:05.588Z,20.70
2018-06-15T07:28:38.803Z,20.70
2018-06-15T07:32:12.015Z,20.90
2018-06-15T07:35:45.275Z,21.00
2018-06-15T07:39:18.510Z,21.10
2018-06-15T07:42:51.727Z,21.10
2018-06-15T07:46:24.992Z,21.20
2018-06-15T07:49:58.197Z,21.20
2018-06-15T07:53:31.498Z,21.20
2018-06-15T07:57:04.732Z,21.30
2018-06-15T08:00:37.967Z,21.50
2018-06-15T08:04:12.204Z,21.70
2018-06-15T08:07:45.419Z,21.90
2018-06-15T08:11:18.639Z,22.20
2018-06-15T08:14:51.855Z,22.30
2018-06-15T08:18:25.084Z,22.30
2018-06-15T08:21:58.328Z,22.40
2018-06-15T08:25:31.617Z,22.40
2018-06-15T08:29:04.863Z,22.30
2018-06-15T08:32:38.081Z,22.30
2018-06-15T08:36:11.304Z,22.50
2018-06-15T08:43:17.474Z,22.90
2018-06-15T08:46:50.683Z,23.10
2018-06-15T08:50:23.940Z,23.40
2018-06-15T08:53:57.161Z,23.60
2018-06-15T08:57:30.386Z,23.70
2018-06-15T09:01:03.627Z,23.80
2018-06-15T09:04:36.830Z,24.00
2018-06-15T09:08:10.027Z,23.90
2018-06-15T09:11:43.259Z,23.70
2018-06-15T09:15:16.511Z,23.60
2018-06-15T09:18:49.745Z,23.50
2018-06-15T09:22:22.972Z,23.50
2018-06-15T09:25:56.200Z,23.40
2018-06-15T09:29:29.427Z,23.50
2018-06-15T09:33:02.670Z,23.50
2018-06-15T09:36:35.887Z,23.70
2018-06-15T09:40:09.280Z,23.90
2018-06-15T09:43:42.498Z,24.00
2018-06-15T09:47:16.756Z,24.00
2018-06-15T09:50:49.983Z,23.90
2018-06-15T09:54:23.231Z,24.10
2018-06-15T09:57:56.463Z,24.10
2018-06-15T10:01:29.727Z,24.00
2018-06-15T10:05:02.964Z,24.00
2018-06-15T10:08:36.728Z,24.10
2018-06-15T10:12:09.944Z,24.20
2018-06-15T10:15:43.835Z,24.30
2018-06-15T10:19:17.078Z,24.30
2018-06-15T10:22:50.305Z,24.20
2018-06-15T10:26:23.552Z,24.20
2018-06-15T10:29:56.783Z,24.30
2018-06-15T10:33:30.005Z,24.50
2018-06-15T10:37:03.230Z,24.60
2018-06-15T10:44:09.474Z,24.80
2018-06-15T10:47:42.679Z,25.00
2018-06-15T10:51:15.924Z,25.20
2018-06-15T10:54:49.507Z,25.40
2018-06-15T10:58:22.747Z,25.50
2018-06-15T11:01:55.949Z,25.50
2018-06-15T11:05:29.170Z,25.50
2018-06-15T11:09:02.387Z,25.40
2018-06-15T11:12:35.660Z,25.30
2018-06-15T11:16:08.884Z,25.30
2018-06-15T11:19:42.114Z,25.40
2018-06-15T11:23:15.348Z,25.40
2018-06-15T11:26:48.586Z,25.40
2018-06-15T11:30:21.816Z,25.60
2018-06-15T11:37:28.008Z,25.80
2018-06-15T11:41:01.248Z,25.80
2018-06-15T11:44:34.489Z,25.90
2018-06-15T11:48:07.740Z,25.90
2018-06-15T11:51:40.953Z,25.90
2018-06-15T11:55:14.173Z,25.90
2018-06-15T11:58:47.388Z,25.90
2018-06-15T12:02:20.601Z,25.80
2018-06-15T12:09:26.781Z,25.70
2018-06-15T12:13:00.012Z,25.80
2018-06-15T12:16:33.248Z,25.80
2018-06-15T12:20:06.720Z,25.80
2018-06-15T12:23:39.926Z,25.80
2018-06-15T12:27:13.240Z,25.60
2018-06-15T12:30:46.447Z,25.50
2018-06-15T12:34:19.711Z,25.40
2018-06-15T12:37:52.955Z,25.40
2018-06-15T12:41:26.160Z,25.40
2018-06-15T12:44:59.377Z,25.50
2018-06-15T12:48:32.582Z,25.50
2018-06-15T12:52:06.048Z,25.50
2018-06-15T12:55:39.266Z,25.50
2018-06-15T12:59:12.550Z,25.40
2018-06-15T13:02:45.767Z,25.50
2018-06-15T13:06:18.955Z,25.50
2018-06-15T13:09:52.171Z,25.60
2018-06-15T13:13:25.396Z,25.60
2018-06-15T13:20:32.428Z,25.60
2018-06-15T13:24:05.680Z,25.70
2018-06-15T13:27:38.901Z,25.70
2018-06-15T13:31:12.127Z,25.60
2018-06-15T13:34:45.335Z,25.70
2018-06-15T13:38:18.591Z,25.70
2018-06-15T13:41:51.816Z,25.60
2018-06-15T13:45:25.027Z,25.50
2018-06-15T13:48:58.463Z,25.40
2018-06-15T13:52:31.679Z,25.40
2018-06-15T13:56:04.970Z,25.40
2018-06-15T13:59:38.180Z,25.30
2018-06-15T14:03:11.727Z,25.50
2018-06-15T14:06:44.951Z,26.00
2018-06-15T14:10:18.159Z,26.50
2018-06-15T14:13:51.394Z,26.90
2018-06-15T14:17:24.635Z,27.30
2018-06-15T14:20:57.865Z,27.50
2018-06-15T14:24:31.069Z,27.60
2018-06-15T14:28:04.288Z,27.50
2018-06-15T14:31:37.517Z,27.40
2018-06-15T14:35:10.732Z,27.30
2018-06-15T14:38:43.957Z,27.20
2018-06-15T14:42:17.187Z,27.10
2018-06-15T14:45:50.425Z,27.10
2018-06-15T14:49:23.643Z,27.00
2018-06-15T14:52:56.897Z,26.90
2018-06-15T14:56:30.664Z,26.80
2018-06-15T15:00:03.904Z,26.60
2018-06-15T15:03:37.112Z,26.30
2018-06-15T15:10:44.077Z,26.00
2018-06-15T15:17:50.255Z,26.30
2018-06-15T15:21:23.646Z,27.10
2018-06-15T15:24:56.895Z,27.70
2018-06-15T15:28:30.099Z,28.40
2018-06-15T15:32:03.324Z,28.90
2018-06-15T15:35:36.553Z,29.10
2018-06-15T15:39:10.740Z,29.30
2018-06-15T15:49:49.983Z,29.00
2018-06-15T15:53:23.238Z,28.90
2018-06-15T15:56:56.486Z,29.00
2018-06-15T16:04:02.779Z,29.30
2018-06-15T16:07:36.001Z,29.60
2018-06-15T16:11:09.299Z,29.90
2018-06-15T16:14:42.533Z,29.70
2018-06-15T16:18:15.771Z,29.50
2018-06-15T16:21:49.023Z,29.30
2018-06-15T16:25:22.311Z,29.10
2018-06-15T16:32:28.512Z,28.40
2018-06-15T16:36:01.788Z,28.10
2018-06-15T16:39:35.007Z,27.70
2018-06-15T16:46:41.227Z,27.00
2018-06-15T16:50:14.589Z,26.70
2018-06-15T16:53:47.823Z,26.40
2018-06-15T16:57:21.056Z,26.20
2018-06-15T17:00:54.287Z,26.10
2018-06-15T17:04:27.540Z,25.90
2018-06-15T17:08:00.772Z,25.90
2018-06-15T17:11:34.004Z,25.90
2018-06-15T17:15:07.227Z,25.90
2018-06-15T17:18:40.465Z,25.80
2018-06-15T17:22:13.816Z,25.80
2018-06-15T17:25:47.273Z,25.70
2018-06-15T17:29:21.292Z,25.60
2018-06-15T17:32:54.594Z,25.70
2018-06-15T17:36:31.302Z,25.60
2018-06-15T17:51:31.006Z,25.20
2018-06-15T17:55:16.947Z,25.10
2018-06-15T17:58:52.585Z,24.90
2018-06-15T18:02:29.061Z,24.80
2018-06-15T18:06:02.748Z,24.80
2018-06-15T18:13:23.131Z,24.50
2018-06-15T18:16:56.908Z,24.40
2018-06-15T18:20:32.810Z,24.30
2018-06-15T18:24:08.030Z,24.20
2018-06-15T18:27:44.378Z,24.10
2018-06-15T18:34:52.372Z,23.90
2018-06-15T18:38:27.536Z,23.90
2018-06-15T18:42:01.228Z,23.80
2018-06-15T18:49:08.512Z,23.80
2018-06-15T18:52:43.217Z,23.80
2018-06-15T18:59:49.594Z,23.60
2018-06-15T19:03:22.888Z,23.50
2018-06-15T19:06:56.183Z,23.40
2018-06-15T19:10:29.499Z,23.30
2018-06-15T19:17:42.940Z,23.30
2018-06-15T19:21:16.668Z,23.20
2018-06-15T19:28:23.001Z,22.90
2018-06-15T19:31:56.279Z,22.80
2018-06-15T19:39:02.836Z,22.60
2018-06-15T19:42:36.127Z,22.50
2018-06-15T19:46:09.364Z,22.40
2018-06-15T19:53:15.952Z,22.20
2018-06-15T19:56:49.272Z,22.10
2018-06-15T20:03:56.631Z,21.90
2018-06-15T20:07:29.966Z,21.80
2018-06-15T20:11:03.267Z,21.70
2018-06-15T20:14:36.499Z,21.60
2018-06-15T20:18:09.743Z,21.60
2018-06-15T20:21:43.105Z,21.50
2018-06-15T20:25:16.880Z,21.40
2018-06-15T20:28:50.403Z,21.30
2018-06-15T20:32:23.651Z,21.30
2018-06-15T20:35:56.883Z,21.20
2018-06-15T20:39:30.157Z,21.20
2018-06-15T20:43:03.547Z,21.10
2018-06-15T20:46:36.851Z,21.10
2018-06-15T20:50:10.258Z,21.10
2018-06-15T20:53:43.509Z,21.00
2018-06-15T20:57:16.740Z,20.90
2018-06-15T21:00:50.154Z,20.90
2018-06-15T21:04:23.646Z,20.90
2018-06-15T21:07:56.932Z,20.90
2018-06-15T21:11:30.179Z,20.80
2018-06-15T21:15:03.664Z,20.80
2018-06-15T21:18:37.018Z,20.70
2018-06-15T21:22:10.593Z,20.70
2018-06-15T21:25:43.886Z,20.60
2018-06-15T21:29:17.436Z,20.60
2018-06-15T21:32:50.833Z,20.50
2018-06-15T21:36:24.465Z,20.50
2018-06-15T21:39:57.700Z,20.40
2018-06-15T21:43:30.948Z,20.40
2018-06-15T21:47:04.367Z,20.40
2018-06-15T21:50:37.612Z,20.30
2018-06-15T21:54:10.846Z,20.30
2018-06-15T21:57:44.094Z,20.30
2018-06-15T22:01:17.340Z,20.20
2018-06-15T22:04:50.542Z,20.20
2018-06-15T22:08:24.075Z,20.10
2018-06-15T22:15:30.369Z,20.00
2018-06-15T22:22:36.612Z,19.90
2018-06-15T22:26:09.856Z,19.90
2018-06-15T22:33:16.049Z,19.70
2018-06-15T22:36:49.289Z,19.70
2018-06-15T22:40:22.548Z,19.70
2018-06-15T22:43:55.810Z,19.70
2018-06-15T22:47:29.056Z,19.70
2018-06-15T22:54:35.332Z,19.60
2018-06-15T22:58:08.559Z,19.50
2018-06-15T23:01:41.801Z,19.40
2018-06-15T23:05:15.078Z,19.30
2018-06-15T23:08:48.333Z,19.30
2018-06-15T23:12:21.575Z,19.20
2018-06-15T23:15:54.820Z,19.20
2018-06-15T23:19:28.082Z,19.10
2018-06-15T23:23:01.318Z,19.10
2018-06-15T23:26:34.571Z,19.00
2018-06-15T23:30:07.803Z,19.00
2018-06-15T23:33:41.039Z,19.00
2018-06-15T23:37:14.302Z,19.00
2018-06-15T23:40:47.579Z,18.90
2018-06-15T23:44:20.812Z,18.80
2018-06-15T23:47:54.049Z,18.80
2018-06-15T23:51:27.298Z,18.70
2018-06-15T23:55:00.541Z,18.70
2018-06-15T23:58:33.779Z,18.70
